EGCN/DSA METAR and TAF weather

Enter ICAO airport designator
Station Type Date Time Source
EGCN METAR 2019/05/25 08:50 UTC NOAA

EGCN 250850Z 31007KT 290V360 CAVOK 16/08 Q1019


Station Type Date Time Source
EGCN Decoded METAR 2019/05/25 08:50 UTC NOAA

Station name not available
May 25, 2019 - 04:50 AM EDT / 2019.05.25 0850 UTC
Wind: from the NW (310 degrees) at 8 MPH (7 KT) (direction variable):0
Visibility: greater than 7 mile(s):0
Temperature: 60 F (16 C)
Dew Point: 46 F (8 C)
Relative Humidity: 58%
Pressure (altimeter): 30.09 in. Hg (1019 hPa)
ob: EGCN 250850Z 31007KT 290V360 CAVOK 16/08 Q1019
cycle: 9

Station Type Date Time Source
EGCN TAF 2019/05/25 06:00 UTC NOAA

TAF EGCN 250454Z 2506/2606 29008KT 9999 SCT040 PROB30
TEMPO 2515/2518 6000 RA
TEMPO 2518/2606 8000 -RA FEW008 BKN012 PROB30
TEMPO 2518/2606 4000 RA BKN008

Example: see airport list